sensor_id;sensor_type;location;lat;lon;timestamp;pressure;altitude;pressure_sealevel;temperature;humidity
25080;BME280;13071;48.868;9.996;2022-10-17T00:02:04;97069.19;;;14.36;93.06
25080;BME280;13071;48.868;9.996;2022-10-17T00:04:31;97068.38;;;14.36;92.79
25080;BME280;13071;48.868;9.996;2022-10-17T00:06:57;97063.88;;;14.40;91.96
25080;BME280;13071;48.868;9.996;2022-10-17T00:09:25;97074.31;;;14.38;92.07
25080;BME280;13071;48.868;9.996;2022-10-17T00:11:51;97075.44;;;14.37;92.36
25080;BME280;13071;48.868;9.996;2022-10-17T00:14:19;97074.97;;;14.35;92.54
25080;BME280;13071;48.868;9.996;2022-10-17T00:16:46;97087.41;;;14.36;91.77
25080;BME280;13071;48.868;9.996;2022-10-17T00:19:12;97073.16;;;14.26;92.42
25080;BME280;13071;48.868;9.996;2022-10-17T00:21:39;97078.16;;;14.24;92.52
25080;BME280;13071;48.868;9.996;2022-10-17T00:24:06;97075.44;;;14.24;92.67
25080;BME280;13071;48.868;9.996;2022-10-17T00:26:32;97080.19;;;14.27;92.52
25080;BME280;13071;48.868;9.996;2022-10-17T00:28:59;97077.13;;;14.17;93.26
25080;BME280;13071;48.868;9.996;2022-10-17T00:31:27;97082.38;;;14.10;93.85
25080;BME280;13071;48.868;9.996;2022-10-17T00:33:53;97085.88;;;14.10;94.09
25080;BME280;13071;48.868;9.996;2022-10-17T00:36:21;97076.25;;;14.01;95.10
25080;BME280;13071;48.868;9.996;2022-10-17T00:38:51;97083.94;;;13.99;95.89
25080;BME280;13071;48.868;9.996;2022-10-17T00:41:21;97088.13;;;13.96;96.22
25080;BME280;13071;48.868;9.996;2022-10-17T00:43:55;97095.31;;;14.01;96.02
25080;BME280;13071;48.868;9.996;2022-10-17T00:46:26;97089.88;;;14.01;95.82
25080;BME280;13071;48.868;9.996;2022-10-17T00:48:56;97087.13;;;14.01;95.16
25080;BME280;13071;48.868;9.996;2022-10-17T00:51:28;97088.91;;;13.72;96.31
25080;BME280;13071;48.868;9.996;2022-10-17T00:53:57;97094.56;;;13.67;96.55
25080;BME280;13071;48.868;9.996;2022-10-17T00:56:25;97097.53;;;13.62;97.35
25080;BME280;13071;48.868;9.996;2022-10-17T00:58:52;97101.34;;;13.49;97.75
25080;BME280;13071;48.868;9.996;2022-10-17T01:01:18;97099.88;;;13.39;98.16
25080;BME280;13071;48.868;9.996;2022-10-17T01:03:45;97095.00;;;13.45;97.68
25080;BME280;13071;48.868;9.996;2022-10-17T01:06:13;97101.69;;;13.48;97.38
25080;BME280;13071;48.868;9.996;2022-10-17T01:08:39;97093.31;;;13.40;97.87
25080;BME280;13071;48.868;9.996;2022-10-17T01:11:16;97094.47;;;13.52;97.28
25080;BME280;13071;48.868;9.996;2022-10-17T01:13:50;97101.00;;;13.38;98.24
25080;BME280;13071;48.868;9.996;2022-10-17T01:16:26;97100.66;;;13.40;98.08
25080;BME280;13071;48.868;9.996;2022-10-17T01:19:02;97108.13;;;13.43;97.69
25080;BME280;13071;48.868;9.996;2022-10-17T01:21:43;97106.09;;;13.40;97.31
25080;BME280;13071;48.868;9.996;2022-10-17T01:24:40;97108.50;;;13.42;97.06
25080;BME280;13071;48.868;9.996;2022-10-17T01:27:29;97097.63;;;13.42;96.72
25080;BME280;13071;48.868;9.996;2022-10-17T01:33:01;97103.38;;;13.40;97.36
25080;BME280;13071;48.868;9.996;2022-10-17T01:35:37;97101.31;;;13.37;97.11
25080;BME280;13071;48.868;9.996;2022-10-17T01:38:09;97094.31;;;13.36;97.40
25080;BME280;13071;48.868;9.996;2022-10-17T01:40:41;97100.75;;;13.31;98.00
25080;BME280;13071;48.868;9.996;2022-10-17T01:43:13;97098.69;;;13.28;97.90
25080;BME280;13071;48.868;9.996;2022-10-17T01:45:46;97087.38;;;13.26;98.42
25080;BME280;13071;48.868;9.996;2022-10-17T01:48:17;97089.63;;;13.24;99.17
25080;BME280;13071;48.868;9.996;2022-10-17T01:50:48;97084.44;;;13.31;98.85
25080;BME280;13071;48.868;9.996;2022-10-17T01:53:19;97091.34;;;13.29;98.30
25080;BME280;13071;48.868;9.996;2022-10-17T01:55:49;97083.00;;;13.13;98.89
25080;BME280;13071;48.868;9.996;2022-10-17T01:58:20;97079.56;;;13.04;99.34
25080;BME280;13071;48.868;9.996;2022-10-17T02:00:49;97084.16;;;13.12;98.59
25080;BME280;13071;48.868;9.996;2022-10-17T02:03:19;97083.16;;;13.17;98.11
25080;BME280;13071;48.868;9.996;2022-10-17T02:05:47;97085.19;;;13.20;98.01
25080;BME280;13071;48.868;9.996;2022-10-17T02:08:24;97087.38;;;13.26;98.01
25080;BME280;13071;48.868;9.996;2022-10-17T02:10:54;97085.00;;;13.25;97.25
25080;BME280;13071;48.868;9.996;2022-10-17T02:13:28;97083.50;;;13.15;97.63
25080;BME280;13071;48.868;9.996;2022-10-17T02:16:06;97078.72;;;13.12;97.49
25080;BME280;13071;48.868;9.996;2022-10-17T02:19:04;97083.19;;;13.08;98.58
25080;BME280;13071;48.868;9.996;2022-10-17T02:21:39;97090.91;;;13.06;98.97
25080;BME280;13071;48.868;9.996;2022-10-17T02:24:16;97083.75;;;13.02;98.92
25080;BME280;13071;48.868;9.996;2022-10-17T02:26:50;97084.75;;;12.97;99.42
25080;BME280;13071;48.868;9.996;2022-10-17T02:29:21;97090.19;;;12.97;100.00
25080;BME280;13071;48.868;9.996;2022-10-17T02:31:56;97087.47;;;12.97;100.00
25080;BME280;13071;48.868;9.996;2022-10-17T02:34:28;97086.09;;;12.91;100.00
25080;BME280;13071;48.868;9.996;2022-10-17T02:36:58;97074.38;;;12.78;100.00
25080;BME280;13071;48.868;9.996;2022-10-17T02:39:27;97084.50;;;12.90;100.00
25080;BME280;13071;48.868;9.996;2022-10-17T02:41:56;97083.06;;;13.05;100.00
25080;BME280;13071;48.868;9.996;2022-10-17T02:44:25;97073.75;;;12.93;100.00
25080;BME280;13071;48.868;9.996;2022-10-17T02:46:55;97079.44;;;13.01;100.00
25080;BME280;13071;48.868;9.996;2022-10-17T02:49:30;97072.41;;;12.99;100.00
25080;BME280;13071;48.868;9.996;2022-10-17T02:52:03;97072.88;;;13.02;100.00
25080;BME280;13071;48.868;9.996;2022-10-17T02:54:36;97073.47;;;13.07;100.00
25080;BME280;13071;48.868;9.996;2022-10-17T02:57:09;97074.25;;;13.08;100.00
25080;BME280;13071;48.868;9.996;2022-10-17T02:59:38;97079.56;;;13.04;99.49
25080;BME280;13071;48.868;9.996;2022-10-17T03:02:06;97077.63;;;12.92;99.77
25080;BME280;13071;48.868;9.996;2022-10-17T03:04:34;97078.59;;;12.88;99.89
25080;BME280;13071;48.868;9.996;2022-10-17T03:07:01;97077.56;;;12.80;100.00
25080;BME280;13071;48.868;9.996;2022-10-17T03:09:27;97083.66;;;12.77;100.00
25080;BME280;13071;48.868;9.996;2022-10-17T03:11:54;97082.06;;;12.76;100.00
25080;BME280;13071;48.868;9.996;2022-10-17T03:14:20;97089.22;;;12.81;100.00
25080;BME280;13071;48.868;9.996;2022-10-17T03:16:47;97085.09;;;12.75;100.00
25080;BME280;13071;48.868;9.996;2022-10-17T03:19:14;97091.94;;;12.81;100.00
25080;BME280;13071;48.868;9.996;2022-10-17T03:21:41;97095.56;;;12.85;99.47
25080;BME280;13071;48.868;9.996;2022-10-17T03:24:08;97100.06;;;12.81;99.44
25080;BME280;13071;48.868;9.996;2022-10-17T03:26:35;97099.41;;;12.84;99.18
25080;BME280;13071;48.868;9.996;2022-10-17T03:29:01;97097.81;;;12.83;98.99
25080;BME280;13071;48.868;9.996;2022-10-17T03:31:28;97096.56;;;12.80;98.50
25080;BME280;13071;48.868;9.996;2022-10-17T03:33:55;97103.44;;;12.78;98.70
25080;BME280;13071;48.868;9.996;2022-10-17T03:36:22;97098.16;;;12.81;98.81
25080;BME280;13071;48.868;9.996;2022-10-17T03:38:52;97100.41;;;12.79;98.74
25080;BME280;13071;48.868;9.996;2022-10-17T03:41:19;97104.25;;;12.78;98.70
25080;BME280;13071;48.868;9.996;2022-10-17T03:43:46;97103.31;;;12.74;98.53
25080;BME280;13071;48.868;9.996;2022-10-17T03:46:12;97103.53;;;12.69;98.85
25080;BME280;13071;48.868;9.996;2022-10-17T03:48:39;97102.72;;;12.69;99.45
25080;BME280;13071;48.868;9.996;2022-10-17T03:51:07;97107.56;;;12.63;100.00
25080;BME280;13071;48.868;9.996;2022-10-17T03:53:34;97099.47;;;12.54;100.00
25080;BME280;13071;48.868;9.996;2022-10-17T03:56:10;97106.84;;;12.33;100.00
25080;BME280;13071;48.868;9.996;2022-10-17T03:58:37;97111.97;;;12.26;100.00
25080;BME280;13071;48.868;9.996;2022-10-17T04:01:04;97118.50;;;12.25;100.00
25080;BME280;13071;48.868;9.996;2022-10-17T04:03:32;97122.81;;;12.26;100.00
25080;BME280;13071;48.868;9.996;2022-10-17T04:05:58;97119.13;;;12.31;100.00
25080;BME280;13071;48.868;9.996;2022-10-17T04:08:25;97120.06;;;12.35;100.00
25080;BME280;13071;48.868;9.996;2022-10-17T04:10:57;97125.47;;;12.35;100.00
25080;BME280;13071;48.868;9.996;2022-10-17T04:13:25;97121.03;;;12.30;100.00
25080;BME280;13071;48.868;9.996;2022-10-17T04:15:53;97125.66;;;12.30;100.00
25080;BME280;13071;48.868;9.996;2022-10-17T04:18:20;97122.50;;;12.28;100.00
25080;BME280;13071;48.868;9.996;2022-10-17T04:20:46;97117.72;;;12.25;100.00
25080;BME280;13071;48.868;9.996;2022-10-17T04:23:13;97123.16;;;12.25;100.00
25080;BME280;13071;48.868;9.996;2022-10-17T04:25:39;97130.97;;;12.26;100.00
25080;BME280;13071;48.868;9.996;2022-10-17T04:28:06;97131.44;;;12.28;100.00
25080;BME280;13071;48.868;9.996;2022-10-17T04:30:34;97130.03;;;12.22;100.00
25080;BME280;13071;48.868;9.996;2022-10-17T04:33:01;97136.16;;;12.10;100.00
25080;BME280;13071;48.868;9.996;2022-10-17T04:35:28;97137.81;;;12.03;100.00
25080;BME280;13071;48.868;9.996;2022-10-17T04:37:55;97130.78;;;12.02;100.00
25080;BME280;13071;48.868;9.996;2022-10-17T04:40:21;97129.84;;;11.98;100.00
25080;BME280;13071;48.868;9.996;2022-10-17T04:42:48;97138.44;;;12.00;100.00
25080;BME280;13071;48.868;9.996;2022-10-17T04:45:15;97144.38;;;11.93;100.00
25080;BME280;13071;48.868;9.996;2022-10-17T04:47:43;97141.06;;;11.88;100.00
25080;BME280;13071;48.868;9.996;2022-10-17T04:50:09;97152.09;;;11.83;100.00
25080;BME280;13071;48.868;9.996;2022-10-17T04:52:36;97141.56;;;11.81;100.00
25080;BME280;13071;48.868;9.996;2022-10-17T04:55:03;97146.69;;;11.74;100.00
25080;BME280;13071;48.868;9.996;2022-10-17T04:57:33;97137.41;;;11.75;100.00
25080;BME280;13071;48.868;9.996;2022-10-17T05:00:00;97151.59;;;11.72;100.00
25080;BME280;13071;48.868;9.996;2022-10-17T05:02:26;97151.31;;;11.65;100.00
25080;BME280;13071;48.868;9.996;2022-10-17T05:04:54;97150.88;;;11.54;100.00
25080;BME280;13071;48.868;9.996;2022-10-17T05:07:21;97159.50;;;11.48;100.00
25080;BME280;13071;48.868;9.996;2022-10-17T05:09:48;97155.31;;;11.50;100.00
25080;BME280;13071;48.868;9.996;2022-10-17T05:12:14;97149.44;;;11.48;100.00
25080;BME280;13071;48.868;9.996;2022-10-17T05:14:41;97151.97;;;11.45;100.00
25080;BME280;13071;48.868;9.996;2022-10-17T05:17:07;97158.88;;;11.42;100.00
25080;BME280;13071;48.868;9.996;2022-10-17T05:19:34;97159.16;;;11.41;100.00
25080;BME280;13071;48.868;9.996;2022-10-17T05:22:02;97158.09;;;11.33;100.00
25080;BME280;13071;48.868;9.996;2022-10-17T05:24:28;97159.03;;;11.20;100.00
25080;BME280;13071;48.868;9.996;2022-10-17T05:26:55;97147.75;;;11.09;100.00
25080;BME280;13071;48.868;9.996;2022-10-17T05:29:22;97152.38;;;11.09;100.00
25080;BME280;13071;48.868;9.996;2022-10-17T05:31:48;97153.34;;;11.04;100.00
25080;BME280;13071;48.868;9.996;2022-10-17T05:34:15;97167.38;;;11.15;100.00
25080;BME280;13071;48.868;9.996;2022-10-17T05:36:41;97166.06;;;11.21;100.00
25080;BME280;13071;48.868;9.996;2022-10-17T05:39:10;97160.97;;;11.28;100.00
25080;BME280;13071;48.868;9.996;2022-10-17T05:41:37;97171.47;;;11.21;100.00
25080;BME280;13071;48.868;9.996;2022-10-17T05:44:04;97170.69;;;11.29;100.00
25080;BME280;13071;48.868;9.996;2022-10-17T05:46:31;97171.16;;;11.31;100.00
25080;BME280;13071;48.868;9.996;2022-10-17T05:48:58;97168.63;;;11.35;100.00
25080;BME280;13071;48.868;9.996;2022-10-17T05:51:25;97176.72;;;11.43;100.00
25080;BME280;13071;48.868;9.996;2022-10-17T05:53:51;97166.50;;;11.49;100.00
25080;BME280;13071;48.868;9.996;2022-10-17T05:56:19;97169.38;;;11.52;100.00
25080;BME280;13071;48.868;9.996;2022-10-17T05:58:46;97173.03;;;11.48;100.00
25080;BME280;13071;48.868;9.996;2022-10-17T06:01:13;97172.91;;;11.36;100.00
25080;BME280;13071;48.868;9.996;2022-10-17T06:03:39;97166.66;;;11.35;100.00
25080;BME280;13071;48.868;9.996;2022-10-17T06:06:08;97176.03;;;11.55;100.00
25080;BME280;13071;48.868;9.996;2022-10-17T06:08:36;97168.53;;;11.69;100.00
25080;BME280;13071;48.868;9.996;2022-10-17T06:11:02;97175.88;;;11.77;100.00
25080;BME280;13071;48.868;9.996;2022-10-17T06:13:30;97178.41;;;11.82;100.00
25080;BME280;13071;48.868;9.996;2022-10-17T06:15:57;97179.47;;;11.90;100.00
25080;BME280;13071;48.868;9.996;2022-10-17T06:18:24;97181.09;;;11.91;100.00
25080;BME280;13071;48.868;9.996;2022-10-17T06:20:51;97194.16;;;11.97;100.00
25080;BME280;13071;48.868;9.996;2022-10-17T06:23:18;97189.53;;;11.98;100.00
25080;BME280;13071;48.868;9.996;2022-10-17T06:25:45;97186.63;;;12.03;100.00
25080;BME280;13071;48.868;9.996;2022-10-17T06:28:11;97183.22;;;12.15;100.00
25080;BME280;13071;48.868;9.996;2022-10-17T06:30:40;97187.78;;;12.31;100.00
25080;BME280;13071;48.868;9.996;2022-10-17T06:33:06;97185.63;;;12.45;100.00
25080;BME280;13071;48.868;9.996;2022-10-17T06:35:33;97192.91;;;12.53;100.00
25080;BME280;13071;48.868;9.996;2022-10-17T06:38:00;97196.09;;;12.55;100.00
25080;BME280;13071;48.868;9.996;2022-10-17T06:40:26;97197.03;;;12.60;100.00
25080;BME280;13071;48.868;9.996;2022-10-17T06:42:55;97206.03;;;12.51;100.00
25080;BME280;13071;48.868;9.996;2022-10-17T06:45:21;97213.69;;;12.49;100.00
25080;BME280;13071;48.868;9.996;2022-10-17T06:47:49;97214.63;;;12.53;100.00
25080;BME280;13071;48.868;9.996;2022-10-17T06:50:16;97211.91;;;12.53;100.00
25080;BME280;13071;48.868;9.996;2022-10-17T06:52:43;97221.03;;;12.58;100.00
25080;BME280;13071;48.868;9.996;2022-10-17T06:55:09;97218.75;;;12.60;100.00
25080;BME280;13071;48.868;9.996;2022-10-17T06:57:36;97219.69;;;12.64;100.00
25080;BME280;13071;48.868;9.996;2022-10-17T07:00:04;97216.94;;;12.72;100.00
25080;BME280;13071;48.868;9.996;2022-10-17T07:02:31;97216.88;;;12.81;100.00
25080;BME280;13071;48.868;9.996;2022-10-17T07:04:59;97225.09;;;12.93;100.00
25080;BME280;13071;48.868;9.996;2022-10-17T07:07:25;97219.25;;;13.03;100.00
25080;BME280;13071;48.868;9.996;2022-10-17T07:09:52;97223.53;;;13.13;100.00
25080;BME280;13071;48.868;9.996;2022-10-17T07:12:19;97235.00;;;13.18;100.00
25080;BME280;13071;48.868;9.996;2022-10-17T07:14:45;97236.47;;;13.16;100.00
25080;BME280;13071;48.868;9.996;2022-10-17T07:17:14;97235.47;;;13.20;100.00
25080;BME280;13071;48.868;9.996;2022-10-17T07:19:41;97242.44;;;13.30;100.00
25080;BME280;13071;48.868;9.996;2022-10-17T07:22:10;97246.81;;;13.43;100.00
25080;BME280;13071;48.868;9.996;2022-10-17T07:24:36;97245.94;;;13.51;100.00
25080;BME280;13071;48.868;9.996;2022-10-17T07:27:03;97247.47;;;13.61;100.00
25080;BME280;13071;48.868;9.996;2022-10-17T07:29:30;97251.53;;;13.67;100.00
25080;BME280;13071;48.868;9.996;2022-10-17T07:31:56;97257.13;;;13.70;100.00
25080;BME280;13071;48.868;9.996;2022-10-17T07:34:23;97254.72;;;13.69;100.00
25080;BME280;13071;48.868;9.996;2022-10-17T07:36:51;97259.19;;;13.53;100.00
25080;BME280;13071;48.868;9.996;2022-10-17T07:39:19;97250.63;;;13.63;100.00
25080;BME280;13071;48.868;9.996;2022-10-17T07:41:47;97261.44;;;13.71;100.00
25080;BME280;13071;48.868;9.996;2022-10-17T07:44:15;97257.31;;;13.86;100.00
25080;BME280;13071;48.868;9.996;2022-10-17T07:46:41;97259.34;;;14.01;100.00
25080;BME280;13071;48.868;9.996;2022-10-17T07:49:08;97262.59;;;14.15;100.00
25080;BME280;13071;48.868;9.996;2022-10-17T07:51:34;97264.16;;;14.16;100.00
25080;BME280;13071;48.868;9.996;2022-10-17T07:54:01;97267.66;;;14.05;100.00
25080;BME280;13071;48.868;9.996;2022-10-17T07:56:29;97266.09;;;14.16;100.00
25080;BME280;13071;48.868;9.996;2022-10-17T07:58:56;97274.06;;;14.33;100.00
25080;BME280;13071;48.868;9.996;2022-10-17T08:01:22;97265.59;;;14.47;100.00
25080;BME280;13071;48.868;9.996;2022-10-17T08:03:50;97270.72;;;14.60;100.00
25080;BME280;13071;48.868;9.996;2022-10-17T08:06:17;97264.47;;;14.72;100.00
25080;BME280;13071;48.868;9.996;2022-10-17T08:08:43;97264.13;;;14.86;100.00
25080;BME280;13071;48.868;9.996;2022-10-17T08:11:11;97265.34;;;15.00;100.00
25080;BME280;13071;48.868;9.996;2022-10-17T08:13:40;97266.47;;;15.11;100.00
25080;BME280;13071;48.868;9.996;2022-10-17T08:16:09;97272.03;;;15.15;100.00
25080;BME280;13071;48.868;9.996;2022-10-17T08:18:38;97267.38;;;15.16;100.00
25080;BME280;13071;48.868;9.996;2022-10-17T08:21:05;97270.00;;;15.12;100.00
25080;BME280;13071;48.868;9.996;2022-10-17T08:23:33;97277.16;;;15.29;100.00
25080;BME280;13071;48.868;9.996;2022-10-17T08:25:59;97269.94;;;15.36;100.00
25080;BME280;13071;48.868;9.996;2022-10-17T08:28:27;97266.44;;;15.36;100.00
25080;BME280;13071;48.868;9.996;2022-10-17T08:31:02;97276.97;;;15.49;100.00
25080;BME280;13071;48.868;9.996;2022-10-17T08:33:29;97276.63;;;15.63;100.00
25080;BME280;13071;48.868;9.996;2022-10-17T08:35:57;97270.78;;;15.65;100.00
25080;BME280;13071;48.868;9.996;2022-10-17T08:38:23;97267.22;;;15.76;100.00
25080;BME280;13071;48.868;9.996;2022-10-17T08:40:50;97277.41;;;15.91;100.00
25080;BME280;13071;48.868;9.996;2022-10-17T08:43:41;97269.59;;;16.06;100.00
25080;BME280;13071;48.868;9.996;2022-10-17T08:46:13;97275.78;;;16.18;100.00
25080;BME280;13071;48.868;9.996;2022-10-17T08:48:42;97273.16;;;16.22;100.00
25080;BME280;13071;48.868;9.996;2022-10-17T08:51:12;97273.78;;;16.31;100.00
25080;BME280;13071;48.868;9.996;2022-10-17T08:53:43;97271.75;;;16.43;100.00
25080;BME280;13071;48.868;9.996;2022-10-17T08:56:16;97268.50;;;16.54;100.00
25080;BME280;13071;48.868;9.996;2022-10-17T08:58:43;97265.00;;;16.69;100.00
25080;BME280;13071;48.868;9.996;2022-10-17T09:01:21;97273.97;;;16.85;100.00
25080;BME280;13071;48.868;9.996;2022-10-17T09:04:04;97270.84;;;17.02;100.00
25080;BME280;13071;48.868;9.996;2022-10-17T09:06:38;97268.94;;;17.22;100.00
25080;BME280;13071;48.868;9.996;2022-10-17T09:09:17;97265.38;;;17.37;100.00
25080;BME280;13071;48.868;9.996;2022-10-17T09:11:55;97273.34;;;17.61;98.74
25080;BME280;13071;48.868;9.996;2022-10-17T09:14:42;97260.53;;;17.85;98.57
25080;BME280;13071;48.868;9.996;2022-10-17T09:17:25;97264.41;;;18.03;96.13
25080;BME280;13071;48.868;9.996;2022-10-17T09:20:00;97265.34;;;18.33;92.16
25080;BME280;13071;48.868;9.996;2022-10-17T09:22:32;97270.22;;;18.43;92.75
25080;BME280;13071;48.868;9.996;2022-10-17T09:25:02;97272.81;;;18.55;91.69
25080;BME280;13071;48.868;9.996;2022-10-17T09:27:34;97265.88;;;18.62;90.32
25080;BME280;13071;48.868;9.996;2022-10-17T09:30:24;97269.44;;;18.66;90.96
25080;BME280;13071;48.868;9.996;2022-10-17T09:32:55;97270.31;;;18.70;91.72
25080;BME280;13071;48.868;9.996;2022-10-17T09:35:22;97269.63;;;18.76;90.70
25080;BME280;13071;48.868;9.996;2022-10-17T09:37:49;97270.16;;;18.85;89.88
25080;BME280;13071;48.868;9.996;2022-10-17T09:40:23;97271.03;;;18.89;88.92
25080;BME280;13071;48.868;9.996;2022-10-17T09:42:50;97266.44;;;18.97;88.27
25080;BME280;13071;48.868;9.996;2022-10-17T09:45:19;97273.28;;;19.10;87.58
25080;BME280;13071;48.868;9.996;2022-10-17T09:47:57;97273.44;;;19.21;88.01
25080;BME280;13071;48.868;9.996;2022-10-17T09:50:29;97263.81;;;19.34;85.56
25080;BME280;13071;48.868;9.996;2022-10-17T09:52:59;97264.88;;;19.49;85.55
25080;BME280;13071;48.868;9.996;2022-10-17T09:55:32;97265.72;;;19.56;85.30
25080;BME280;13071;48.868;9.996;2022-10-17T09:58:04;97263.91;;;19.67;84.60
25080;BME280;13071;48.868;9.996;2022-10-17T10:00:33;97267.47;;;19.68;82.63
25080;BME280;13071;48.868;9.996;2022-10-17T10:03:10;97256.97;;;19.77;83.37
25080;BME280;13071;48.868;9.996;2022-10-17T10:05:39;97260.97;;;19.83;82.88
25080;BME280;13071;48.868;9.996;2022-10-17T10:08:13;97267.00;;;19.96;83.33
25080;BME280;13071;48.868;9.996;2022-10-17T10:10:41;97262.03;;;20.08;83.60
25080;BME280;13071;48.868;9.996;2022-10-17T10:13:17;97267.63;;;20.19;82.52
25080;BME280;13071;48.868;9.996;2022-10-17T10:15:45;97270.44;;;20.22;81.68
25080;BME280;13071;48.868;9.996;2022-10-17T10:18:37;97271.22;;;20.23;81.84
25080;BME280;13071;48.868;9.996;2022-10-17T10:21:07;97265.78;;;20.30;80.46
25080;BME280;13071;48.868;9.996;2022-10-17T10:23:35;97265.44;;;20.32;80.79
25080;BME280;13071;48.868;9.996;2022-10-17T10:26:13;97267.50;;;20.42;80.68
25080;BME280;13071;48.868;9.996;2022-10-17T10:28:50;97259.28;;;20.45;81.18
25080;BME280;13071;48.868;9.996;2022-10-17T10:31:25;97268.34;;;20.49;81.63
25080;BME280;13071;48.868;9.996;2022-10-17T10:33:53;97269.56;;;20.52;81.36
25080;BME280;13071;48.868;9.996;2022-10-17T10:36:20;97271.22;;;20.60;81.53
25080;BME280;13071;48.868;9.996;2022-10-17T10:38:52;97273.28;;;20.74;80.31
25080;BME280;13071;48.868;9.996;2022-10-17T10:41:20;97265.91;;;20.81;80.38
25080;BME280;13071;48.868;9.996;2022-10-17T10:43:48;97270.66;;;20.88;80.03
25080;BME280;13071;48.868;9.996;2022-10-17T10:46:19;97274.97;;;20.85;83.26
25080;BME280;13071;48.868;9.996;2022-10-17T10:48:50;97274.28;;;21.02;82.26
25080;BME280;13071;48.868;9.996;2022-10-17T10:51:24;97269.72;;;21.17;78.90
25080;BME280;13071;48.868;9.996;2022-10-17T10:53:59;97268.19;;;21.23;79.72
25080;BME280;13071;48.868;9.996;2022-10-17T10:56:28;97267.53;;;21.44;81.88
25080;BME280;13071;48.868;9.996;2022-10-17T10:59:00;97274.63;;;21.52;79.07
25080;BME280;13071;48.868;9.996;2022-10-17T11:01:31;97273.47;;;21.57;77.63
25080;BME280;13071;48.868;9.996;2022-10-17T11:04:11;97271.94;;;21.63;76.50
25080;BME280;13071;48.868;9.996;2022-10-17T11:06:43;97278.59;;;21.51;78.51
25080;BME280;13071;48.868;9.996;2022-10-17T11:09:18;97271.94;;;21.59;74.68
25080;BME280;13071;48.868;9.996;2022-10-17T11:11:54;97276.22;;;21.49;73.67
25080;BME280;13071;48.868;9.996;2022-10-17T11:14:32;97264.03;;;21.50;73.18
25080;BME280;13071;48.868;9.996;2022-10-17T11:17:07;97270.72;;;21.49;70.90
25080;BME280;13071;48.868;9.996;2022-10-17T11:19:38;97277.38;;;21.48;68.28
25080;BME280;13071;48.868;9.996;2022-10-17T11:22:14;97270.72;;;21.57;67.27
25080;BME280;13071;48.868;9.996;2022-10-17T11:24:47;97280.09;;;21.41;65.13
25080;BME280;13071;48.868;9.996;2022-10-17T11:27:21;97276.19;;;21.46;66.37
25080;BME280;13071;48.868;9.996;2022-10-17T11:29:49;97274.69;;;21.59;66.32
25080;BME280;13071;48.868;9.996;2022-10-17T11:32:18;97279.41;;;21.55;65.92
25080;BME280;13071;48.868;9.996;2022-10-17T11:34:48;97277.06;;;21.64;66.89
25080;BME280;13071;48.868;9.996;2022-10-17T11:37:25;97283.00;;;21.73;65.37
25080;BME280;13071;48.868;9.996;2022-10-17T11:39:55;97276.66;;;21.62;65.13
25080;BME280;13071;48.868;9.996;2022-10-17T11:42:27;97285.31;;;21.61;67.97
25080;BME280;13071;48.868;9.996;2022-10-17T11:44:58;97273.59;;;21.78;65.36
25080;BME280;13071;48.868;9.996;2022-10-17T11:47:33;97273.94;;;21.66;64.32
25080;BME280;13071;48.868;9.996;2022-10-17T11:50:04;97270.00;;;21.67;66.33
25080;BME280;13071;48.868;9.996;2022-10-17T11:52:40;97264.47;;;21.63;66.90
25080;BME280;13071;48.868;9.996;2022-10-17T11:55:12;97263.69;;;21.63;67.98
25080;BME280;13071;48.868;9.996;2022-10-17T11:57:50;97262.53;;;21.67;66.31
25080;BME280;13071;48.868;9.996;2022-10-17T12:00:23;97264.16;;;21.79;65.93
25080;BME280;13071;48.868;9.996;2022-10-17T12:02:59;97270.03;;;21.70;68.47
25080;BME280;13071;48.868;9.996;2022-10-17T12:05:34;97264.84;;;21.62;69.91
25080;BME280;13071;48.868;9.996;2022-10-17T12:08:09;97268.00;;;21.60;70.18
25080;BME280;13071;48.868;9.996;2022-10-17T12:10:43;97268.75;;;21.57;71.13
25080;BME280;13071;48.868;9.996;2022-10-17T12:19:33;97256.31;;;21.88;66.07
25080;BME280;13071;48.868;9.996;2022-10-17T12:22:17;97265.38;;;21.88;67.16
25080;BME280;13071;48.868;9.996;2022-10-17T12:24:54;97265.72;;;21.80;67.90
25080;BME280;13071;48.868;9.996;2022-10-17T12:27:23;97261.88;;;21.95;65.61
25080;BME280;13071;48.868;9.996;2022-10-17T12:29:58;97259.16;;;22.09;65.83
25080;BME280;13071;48.868;9.996;2022-10-17T12:32:26;97266.28;;;22.14;64.66
25080;BME280;13071;48.868;9.996;2022-10-17T12:34:53;97262.72;;;22.17;64.24
25080;BME280;13071;48.868;9.996;2022-10-17T12:38:01;97267.44;;;22.16;63.11
25080;BME280;13071;48.868;9.996;2022-10-17T12:40:52;97264.72;;;22.20;64.25
25080;BME280;13071;48.868;9.996;2022-10-17T12:43:44;97267.06;;;22.21;63.98
25080;BME280;13071;48.868;9.996;2022-10-17T12:46:11;97262.31;;;22.11;64.52
25080;BME280;13071;48.868;9.996;2022-10-17T12:49:03;97260.38;;;22.26;60.86
25080;BME280;13071;48.868;9.996;2022-10-17T12:52:12;97261.56;;;22.18;64.36
25080;BME280;13071;48.868;9.996;2022-10-17T12:54:41;97269.06;;;22.28;63.57
25080;BME280;13071;48.868;9.996;2022-10-17T12:57:19;97263.94;;;22.40;59.20
25080;BME280;13071;48.868;9.996;2022-10-17T12:59:47;97272.19;;;22.23;59.55
25080;BME280;13071;48.868;9.996;2022-10-17T13:02:18;97278.50;;;22.30;60.74
25080;BME280;13071;48.868;9.996;2022-10-17T13:04:46;97273.00;;;22.27;61.20
25080;BME280;13071;48.868;9.996;2022-10-17T13:07:18;97265.94;;;22.47;58.29
25080;BME280;13071;48.868;9.996;2022-10-17T13:09:46;97263.56;;;22.42;58.47
25080;BME280;13071;48.868;9.996;2022-10-17T13:12:20;97270.25;;;22.37;58.99
25080;BME280;13071;48.868;9.996;2022-10-17T13:14:50;97269.84;;;22.25;61.14
25080;BME280;13071;48.868;9.996;2022-10-17T13:17:25;97262.75;;;22.27;60.28
25080;BME280;13071;48.868;9.996;2022-10-17T13:19:54;97265.91;;;22.40;59.47
25080;BME280;13071;48.868;9.996;2022-10-17T13:22:23;97268.25;;;22.31;61.02